createdAt,value
2023-04-20T00:01:34.625Z,13.10
2023-04-20T00:04:25.946Z,13.00
2023-04-20T00:07:17.746Z,13.00
2023-04-20T00:10:12.696Z,13.00
2023-04-20T00:13:03.707Z,13.00
2023-04-20T00:15:57.479Z,12.90
2023-04-20T00:18:52.754Z,12.90
2023-04-20T00:21:44.260Z,12.80
2023-04-20T00:24:39.306Z,12.80
2023-04-20T00:27:30.946Z,12.80
2023-04-20T00:30:24.109Z,12.80
2023-04-20T00:33:15.700Z,12.80
2023-04-20T00:36:08.668Z,12.70
2023-04-20T00:39:01.420Z,12.70
2023-04-20T00:41:55.376Z,12.70
2023-04-20T00:44:46.903Z,12.70
2023-04-20T00:47:40.038Z,12.70
2023-04-20T00:50:31.648Z,12.70
2023-04-20T00:53:23.419Z,12.60
2023-04-20T00:56:19.457Z,12.50
2023-04-20T00:59:11.372Z,12.50
2023-04-20T01:02:06.834Z,12.50
2023-04-20T01:04:58.228Z,12.50
2023-04-20T01:07:49.862Z,12.40
2023-04-20T01:10:42.805Z,12.40
2023-04-20T01:13:38.026Z,12.40
2023-04-20T01:16:30.025Z,12.30
2023-04-20T01:19:32.716Z,12.30
2023-04-20T01:22:27.214Z,12.30
2023-04-20T01:25:19.078Z,12.30
2023-04-20T01:28:10.638Z,12.30
2023-04-20T01:31:02.002Z,12.30
2023-04-20T01:33:54.858Z,12.20
2023-04-20T01:39:27.604Z,12.20
2023-04-20T01:42:18.757Z,12.20
2023-04-20T01:45:11.832Z,12.20
2023-04-20T01:48:04.487Z,12.10
2023-04-20T01:50:56.793Z,12.10
2023-04-20T01:53:48.142Z,12.00
2023-04-20T01:56:39.617Z,11.90
2023-04-20T01:59:31.214Z,11.80
2023-04-20T02:02:24.450Z,11.90
2023-04-20T02:05:16.040Z,11.90
2023-04-20T02:08:07.583Z,11.80
2023-04-20T02:10:58.851Z,11.80
2023-04-20T02:13:50.411Z,11.70
2023-04-20T02:16:42.714Z,11.70
2023-04-20T02:19:33.888Z,11.70
2023-04-20T02:22:25.070Z,11.70
2023-04-20T02:25:16.910Z,11.70
2023-04-20T02:28:09.958Z,11.70
2023-04-20T02:31:02.390Z,11.60
2023-04-20T02:33:53.535Z,11.60
2023-04-20T02:36:45.113Z,11.50
2023-04-20T02:39:36.244Z,11.50
2023-04-20T02:42:29.744Z,11.40
2023-04-20T02:45:21.337Z,11.40
2023-04-20T02:48:13.588Z,11.40
2023-04-20T02:51:05.170Z,11.40
2023-04-20T02:56:38.460Z,11.50
2023-04-20T02:59:31.352Z,11.50
2023-04-20T03:02:27.830Z,11.50
2023-04-20T03:05:19.478Z,11.60
2023-04-20T03:08:11.779Z,11.60
2023-04-20T03:11:03.250Z,11.60
2023-04-20T03:13:54.724Z,11.60
2023-04-20T03:16:46.954Z,11.60
2023-04-20T03:19:38.579Z,11.50
2023-04-20T03:22:30.031Z,11.50
2023-04-20T03:25:22.765Z,11.40
2023-04-20T03:28:18.753Z,11.40
2023-04-20T03:31:10.868Z,11.40
2023-04-20T03:34:02.526Z,11.50
2023-04-20T03:36:54.312Z,11.50
2023-04-20T03:39:46.300Z,11.50
2023-04-20T03:42:38.197Z,11.50
2023-04-20T03:45:30.022Z,11.50
2023-04-20T03:48:21.534Z,11.50
2023-04-20T03:51:13.034Z,11.40
2023-04-20T03:54:04.319Z,11.30
2023-04-20T03:56:56.143Z,11.30
2023-04-20T03:59:47.587Z,11.30
2023-04-20T04:02:40.257Z,11.40
2023-04-20T04:05:32.102Z,11.50
2023-04-20T04:08:23.807Z,11.40
2023-04-20T04:11:16.569Z,11.50
2023-04-20T04:14:07.707Z,11.50
2023-04-20T04:17:00.199Z,11.40
2023-04-20T04:19:52.772Z,11.50
2023-04-20T04:22:45.141Z,11.40
2023-04-20T04:25:56.684Z,11.40
2023-04-20T04:28:49.497Z,11.30
2023-04-20T04:31:42.830Z,11.30
2023-04-20T04:34:38.647Z,11.40
2023-04-20T04:37:31.079Z,11.30
2023-04-20T04:40:22.487Z,11.40
2023-04-20T04:43:16.352Z,11.40
2023-04-20T04:46:10.885Z,11.40
2023-04-20T04:49:03.055Z,11.50
2023-04-20T04:51:54.282Z,11.40
2023-04-20T04:54:45.977Z,11.40
2023-04-20T04:57:38.827Z,11.40
2023-04-20T05:00:33.547Z,11.40
2023-04-20T05:03:26.295Z,11.50
2023-04-20T05:06:21.687Z,11.50
2023-04-20T05:09:16.381Z,11.50
2023-04-20T05:12:11.661Z,11.50
2023-04-20T05:15:04.874Z,11.50
2023-04-20T05:17:56.538Z,11.50
2023-04-20T05:20:50.355Z,11.50
2023-04-20T05:23:44.370Z,11.50
2023-04-20T05:26:45.855Z,11.60
2023-04-20T05:35:04.168Z,11.70
2023-04-20T05:37:55.941Z,11.80
2023-04-20T05:40:47.864Z,11.70
2023-04-20T05:43:39.487Z,11.70
2023-04-20T05:46:33.602Z,11.70
2023-04-20T05:49:26.354Z,11.70
2023-04-20T05:52:20.732Z,11.70
2023-04-20T05:55:17.932Z,11.60
2023-04-20T05:58:09.861Z,11.50
2023-04-20T06:01:04.725Z,11.50
2023-04-20T06:03:59.251Z,11.40
2023-04-20T06:06:51.261Z,11.40
2023-04-20T06:09:43.030Z,11.30
2023-04-20T06:12:34.913Z,11.40
2023-04-20T06:15:27.159Z,11.20
2023-04-20T06:18:18.703Z,11.30
2023-04-20T06:21:12.169Z,11.40
2023-04-20T06:24:03.906Z,11.40
2023-04-20T06:26:55.520Z,11.40
2023-04-20T06:29:46.755Z,11.50
2023-04-20T06:32:38.965Z,11.40
2023-04-20T06:35:31.713Z,11.40
2023-04-20T06:38:25.576Z,11.40
2023-04-20T06:41:24.747Z,11.50
2023-04-20T06:44:16.055Z,11.60
2023-04-20T06:47:07.994Z,11.60
2023-04-20T06:49:59.908Z,11.70
2023-04-20T06:52:51.394Z,11.80
2023-04-20T06:55:43.272Z,11.90
2023-04-20T06:58:38.353Z,12.00
2023-04-20T07:01:30.334Z,12.00
2023-04-20T07:04:22.584Z,12.10
2023-04-20T07:07:15.862Z,12.30
2023-04-20T07:10:12.327Z,12.40
2023-04-20T07:13:04.320Z,12.50
2023-04-20T07:15:55.638Z,12.50
2023-04-20T07:21:59.949Z,12.30
2023-04-20T07:24:51.886Z,12.30
2023-04-20T07:27:43.844Z,12.40
2023-04-20T07:30:35.336Z,12.20
2023-04-20T07:33:27.954Z,12.10
2023-04-20T07:36:19.934Z,12.00
2023-04-20T07:39:11.449Z,12.10
2023-04-20T07:42:04.963Z,12.10
2023-04-20T07:44:56.724Z,12.10
2023-04-20T07:47:49.793Z,11.90
2023-04-20T07:50:41.701Z,11.80
2023-04-20T07:53:36.166Z,11.90
2023-04-20T07:56:27.766Z,11.90
2023-04-20T07:59:19.260Z,11.90
2023-04-20T08:04:54.268Z,11.80
2023-04-20T08:07:46.148Z,11.90
2023-04-20T08:10:37.881Z,11.80
2023-04-20T08:13:35.442Z,11.90
2023-04-20T08:16:22.900Z,12.10
2023-04-20T08:22:08.823Z,12.10
2023-04-20T08:25:00.286Z,12.30
2023-04-20T08:27:52.888Z,12.40
2023-04-20T08:30:47.128Z,12.30
2023-04-20T08:33:42.043Z,12.30
2023-04-20T08:36:33.624Z,12.50
2023-04-20T08:39:25.219Z,12.70
2023-04-20T08:42:17.183Z,13.00
2023-04-20T08:45:10.526Z,13.10
2023-04-20T08:48:04.104Z,13.20
2023-04-20T08:50:56.170Z,13.20
2023-04-20T08:53:47.764Z,13.10
2023-04-20T08:56:43.721Z,13.00
2023-04-20T08:59:39.791Z,13.10
2023-04-20T09:02:31.367Z,13.30
2023-04-20T09:08:12.052Z,13.50
2023-04-20T09:11:03.421Z,13.60
2023-04-20T09:14:02.831Z,13.60
2023-04-20T09:16:57.361Z,13.80
2023-04-20T09:19:50.570Z,14.00
2023-04-20T09:22:42.415Z,14.30
2023-04-20T09:25:35.466Z,14.60
2023-04-20T09:28:30.762Z,14.80
2023-04-20T09:31:23.240Z,15.10
2023-04-20T09:34:15.154Z,15.30
2023-04-20T09:37:10.377Z,15.40
2023-04-20T09:40:03.923Z,15.50
2023-04-20T09:42:56.699Z,15.30
2023-04-20T09:45:49.364Z,14.90
2023-04-20T09:48:41.030Z,14.80
2023-04-20T09:51:35.604Z,14.80
2023-04-20T09:54:27.470Z,15.00
2023-04-20T09:57:21.044Z,15.10
2023-04-20T10:00:18.254Z,15.30
2023-04-20T10:03:11.296Z,15.20
2023-04-20T10:06:02.963Z,15.10
2023-04-20T10:08:55.713Z,14.90
2023-04-20T10:11:53.350Z,14.70
2023-04-20T10:14:40.116Z,14.70
2023-04-20T10:20:24.568Z,14.60
2023-04-20T10:23:16.649Z,14.60
2023-04-20T10:26:09.824Z,14.50
2023-04-20T10:29:02.278Z,14.40
2023-04-20T10:31:56.969Z,14.20
2023-04-20T10:34:48.834Z,14.10
2023-04-20T10:37:49.811Z,14.10
2023-04-20T10:40:45.378Z,13.90
2023-04-20T10:43:38.648Z,13.70
2023-04-20T10:46:38.262Z,13.40
2023-04-20T10:49:32.636Z,13.20
2023-04-20T10:52:36.378Z,13.10
2023-04-20T10:55:28.720Z,13.00
2023-04-20T10:58:25.501Z,13.10
2023-04-20T11:01:17.615Z,13.10
2023-04-20T11:04:10.664Z,13.10
2023-04-20T11:07:09.177Z,13.10
2023-04-20T11:10:00.898Z,13.10
2023-04-20T11:12:53.406Z,13.20
2023-04-20T11:15:45.204Z,13.40
2023-04-20T11:18:38.021Z,13.70
2023-04-20T11:21:40.813Z,14.00
2023-04-20T11:27:23.524Z,14.80
2023-04-20T11:30:16.032Z,15.00
2023-04-20T11:33:07.934Z,15.20
2023-04-20T11:36:00.023Z,15.30
2023-04-20T11:38:51.673Z,15.30
2023-04-20T11:41:42.720Z,15.30
2023-04-20T11:47:15.291Z,15.30
2023-04-20T11:50:10.429Z,15.40
2023-04-20T11:53:05.976Z,15.40
2023-04-20T11:55:57.621Z,15.40
2023-04-20T11:58:49.387Z,15.50
2023-04-20T12:01:41.173Z,15.30
2023-04-20T12:04:36.890Z,15.20
2023-04-20T12:07:30.196Z,15.10
2023-04-20T12:10:21.798Z,14.90
2023-04-20T12:13:13.713Z,14.70
2023-04-20T12:16:05.986Z,14.80
2023-04-20T12:18:57.670Z,14.70
2023-04-20T12:21:49.196Z,14.80
2023-04-20T12:24:40.613Z,15.00
2023-04-20T12:27:32.335Z,15.20
2023-04-20T12:30:24.059Z,15.00
2023-04-20T12:33:17.249Z,15.00
2023-04-20T12:36:09.514Z,15.10
2023-04-20T12:39:02.069Z,15.20
2023-04-20T12:41:53.617Z,15.50
2023-04-20T12:44:45.398Z,15.50
2023-04-20T12:47:36.679Z,15.80
2023-04-20T12:50:28.185Z,16.00
2023-04-20T12:53:20.067Z,16.00
2023-04-20T12:56:11.574Z,16.00
2023-04-20T12:59:04.513Z,16.30
2023-04-20T13:01:56.347Z,16.70
2023-04-20T13:04:48.070Z,16.90
2023-04-20T13:07:39.552Z,16.90
2023-04-20T13:10:31.080Z,16.90
2023-04-20T13:13:22.373Z,16.70
2023-04-20T13:16:14.507Z,16.60
2023-04-20T13:19:05.931Z,16.40
2023-04-20T13:21:57.526Z,16.10
2023-04-20T13:24:49.194Z,16.20
2023-04-20T13:27:48.107Z,16.20
2023-04-20T13:30:40.339Z,16.30
2023-04-20T13:33:32.008Z,16.30
2023-04-20T13:36:23.957Z,16.50
2023-04-20T13:39:20.272Z,16.80
2023-04-20T13:42:12.267Z,16.80
2023-04-20T13:45:04.203Z,16.90
2023-04-20T13:47:56.073Z,17.30
2023-04-20T13:50:48.185Z,17.00
2023-04-20T13:53:39.388Z,16.80
2023-04-20T13:56:30.648Z,16.50
2023-04-20T13:59:23.029Z,16.30
2023-04-20T14:02:16.426Z,16.10
2023-04-20T14:05:10.469Z,16.50
2023-04-20T14:08:02.099Z,16.60
2023-04-20T14:10:53.399Z,16.30
2023-04-20T14:13:45.195Z,16.30
2023-04-20T14:16:38.212Z,16.60
2023-04-20T14:19:29.669Z,16.70
2023-04-20T14:22:21.089Z,16.70
2023-04-20T14:25:13.423Z,16.60
2023-04-20T14:28:05.353Z,16.70
2023-04-20T14:30:57.038Z,17.00
2023-04-20T14:33:48.567Z,17.50
2023-04-20T14:36:44.016Z,17.90
2023-04-20T14:39:35.579Z,18.20
2023-04-20T14:42:49.867Z,18.30
2023-04-20T14:45:44.502Z,18.80
2023-04-20T14:48:43.077Z,18.10
2023-04-20T14:51:37.534Z,17.40
2023-04-20T14:54:30.057Z,17.10
2023-04-20T14:57:22.081Z,17.60
2023-04-20T15:00:18.352Z,17.60
2023-04-20T15:03:09.882Z,17.50
2023-04-20T15:06:04.282Z,17.40
2023-04-20T15:08:57.192Z,17.20
2023-04-20T15:11:48.898Z,17.10
2023-04-20T15:14:40.505Z,16.80
2023-04-20T15:17:32.313Z,16.80
2023-04-20T15:20:25.499Z,17.10
2023-04-20T15:23:17.094Z,17.40
2023-04-20T15:26:10.356Z,17.80
2023-04-20T15:29:02.131Z,17.90
2023-04-20T15:31:53.938Z,18.10
2023-04-20T15:34:45.662Z,18.00
2023-04-20T15:37:38.454Z,17.70
2023-04-20T15:40:29.748Z,17.30
2023-04-20T15:43:21.142Z,17.30
2023-04-20T15:46:13.095Z,17.30
2023-04-20T15:49:05.360Z,17.00
2023-04-20T15:51:56.816Z,16.90
2023-04-20T15:54:49.422Z,16.90
2023-04-20T15:57:43.814Z,16.60
2023-04-20T16:00:37.050Z,16.30
2023-04-20T16:03:28.697Z,16.20
2023-04-20T16:06:20.331Z,16.30
2023-04-20T16:09:11.581Z,16.20
2023-04-20T16:14:43.726Z,16.10
2023-04-20T16:17:35.004Z,16.00
2023-04-20T16:20:26.826Z,15.80
2023-04-20T16:23:18.565Z,15.80
2023-04-20T16:26:10.292Z,15.60
2023-04-20T16:29:01.996Z,15.60
2023-04-20T16:31:53.636Z,15.50
2023-04-20T16:34:45.549Z,15.40
2023-04-20T16:37:36.968Z,15.40
2023-04-20T16:40:28.735Z,15.40
2023-04-20T16:43:19.995Z,15.40
2023-04-20T16:48:57.253Z,15.10
2023-04-20T16:51:48.889Z,15.00
2023-04-20T16:54:42.186Z,15.10
2023-04-20T16:57:37.720Z,15.00
2023-04-20T17:00:30.484Z,15.10
2023-04-20T17:03:25.418Z,15.20
2023-04-20T17:06:17.343Z,15.10
2023-04-20T17:09:11.462Z,15.00
2023-04-20T17:12:03.360Z,14.80
2023-04-20T17:14:54.670Z,14.80
2023-04-20T17:17:46.531Z,14.80
2023-04-20T17:20:38.285Z,14.60
2023-04-20T17:23:30.041Z,14.40
2023-04-20T17:26:21.877Z,14.30
2023-04-20T17:29:13.767Z,14.10
2023-04-20T17:32:05.621Z,14.10
2023-04-20T17:35:00.768Z,13.90
2023-04-20T17:37:52.284Z,13.90
2023-04-20T17:40:43.909Z,13.90
2023-04-20T17:43:37.208Z,13.80
2023-04-20T17:46:28.855Z,13.80
2023-04-20T17:49:20.477Z,13.70
2023-04-20T17:52:13.786Z,13.80
2023-04-20T17:55:06.075Z,13.60
2023-04-20T17:57:59.304Z,13.50
2023-04-20T18:03:31.872Z,13.60
2023-04-20T18:06:23.711Z,13.50
2023-04-20T18:09:15.157Z,13.40
2023-04-20T18:12:08.009Z,13.30
2023-04-20T18:14:59.730Z,13.30
2023-04-20T18:17:51.907Z,13.20
2023-04-20T18:20:43.541Z,13.20
2023-04-20T18:23:35.272Z,13.30
2023-04-20T18:26:26.776Z,13.30
2023-04-20T18:29:18.291Z,13.20
2023-04-20T18:32:13.545Z,13.20
2023-04-20T18:35:05.057Z,13.10
2023-04-20T18:40:37.144Z,13.00
2023-04-20T18:43:28.897Z,13.00
2023-04-20T18:46:21.258Z,13.00
2023-04-20T18:49:13.252Z,12.90
2023-04-20T18:52:04.969Z,12.90
2023-04-20T18:54:56.596Z,12.80
2023-04-20T18:57:49.628Z,12.80
2023-04-20T19:00:41.073Z,12.80
2023-04-20T19:03:33.101Z,12.80
2023-04-20T19:06:25.407Z,12.70
2023-04-20T19:09:17.344Z,12.70
2023-04-20T19:12:09.173Z,12.60
2023-04-20T19:15:00.895Z,12.60
2023-04-20T19:17:52.297Z,12.60
2023-04-20T19:20:44.150Z,12.60
2023-04-20T19:23:36.749Z,12.60
2023-04-20T19:26:29.684Z,12.70
2023-04-20T19:29:23.710Z,12.70
2023-04-20T19:32:15.356Z,12.80
2023-04-20T19:35:07.815Z,12.70
2023-04-20T19:38:02.029Z,12.60
2023-04-20T19:41:15.813Z,12.70
2023-04-20T19:44:53.715Z,12.60
2023-04-20T19:47:45.637Z,12.50
2023-04-20T19:50:38.548Z,12.50
2023-04-20T19:53:30.315Z,12.40
2023-04-20T19:56:22.101Z,12.30
2023-04-20T19:59:13.496Z,12.30
2023-04-20T20:02:05.105Z,12.30
2023-04-20T20:04:57.011Z,12.30
2023-04-20T20:07:48.561Z,12.30
2023-04-20T20:10:42.661Z,12.40
2023-04-20T20:13:37.312Z,12.40
2023-04-20T20:16:37.711Z,12.40
2023-04-20T20:19:41.271Z,12.40
2023-04-20T20:22:41.053Z,12.40
2023-04-20T20:25:35.988Z,12.40
2023-04-20T20:28:31.576Z,12.40
2023-04-20T20:31:59.570Z,12.40
2023-04-20T20:34:55.539Z,12.40
2023-04-20T20:37:48.130Z,12.40
2023-04-20T20:40:40.748Z,12.50
2023-04-20T20:43:35.467Z,12.50
2023-04-20T20:46:29.739Z,12.40
2023-04-20T20:49:23.149Z,12.50
2023-04-20T20:52:17.377Z,12.50
2023-04-20T20:55:10.387Z,12.60
2023-04-20T20:58:01.726Z,12.60
2023-04-20T21:00:53.345Z,12.50
2023-04-20T21:03:45.429Z,12.50
2023-04-20T21:06:39.368Z,12.40
2023-04-20T21:09:40.077Z,12.40
2023-04-20T21:12:34.633Z,12.20
2023-04-20T21:15:26.455Z,12.30
2023-04-20T21:18:17.934Z,12.30
2023-04-20T21:21:10.654Z,12.20
2023-04-20T21:24:01.884Z,12.20
2023-04-20T21:26:53.036Z,12.20
2023-04-20T21:29:45.764Z,12.20
2023-04-20T21:32:36.890Z,12.20
2023-04-20T21:35:28.480Z,12.20
2023-04-20T21:38:19.819Z,12.20
2023-04-20T21:41:11.300Z,12.20
2023-04-20T21:44:03.250Z,12.20
2023-04-20T21:46:56.607Z,12.30
2023-04-20T21:53:36.567Z,12.30
2023-04-20T21:56:28.582Z,12.20
2023-04-20T21:59:20.179Z,12.20
2023-04-20T22:02:11.977Z,12.10
2023-04-20T22:05:04.423Z,12.00
2023-04-20T22:07:57.381Z,12.10
2023-04-20T22:10:48.694Z,12.10
2023-04-20T22:13:40.193Z,12.00
2023-04-20T22:16:41.736Z,12.10
2023-04-20T22:19:34.946Z,12.20
2023-04-20T22:22:26.426Z,11.90
2023-04-20T22:25:17.764Z,12.00
2023-04-20T22:28:08.795Z,12.00
2023-04-20T22:31:00.567Z,11.90
2023-04-20T22:33:51.873Z,11.90
2023-04-20T22:36:43.448Z,11.80
2023-04-20T22:39:35.010Z,11.80
2023-04-20T22:42:28.318Z,11.80
2023-04-20T22:45:22.583Z,11.80
2023-04-20T22:48:20.161Z,11.90
2023-04-20T22:51:12.027Z,11.90
2023-04-20T22:54:04.416Z,11.80
2023-04-20T22:56:55.903Z,11.80
2023-04-20T22:59:49.689Z,11.70
2023-04-20T23:02:53.562Z,11.70
2023-04-20T23:08:25.549Z,11.70
2023-04-20T23:11:17.956Z,11.70
2023-04-20T23:14:09.917Z,11.60
2023-04-20T23:17:01.199Z,11.60
2023-04-20T23:19:52.938Z,11.60
2023-04-20T23:22:44.190Z,11.70
2023-04-20T23:25:35.762Z,11.70
2023-04-20T23:28:27.178Z,11.70
2023-04-20T23:31:27.676Z,11.80
2023-04-20T23:34:19.264Z,11.70
2023-04-20T23:37:11.686Z,11.80
2023-04-20T23:40:07.320Z,11.90
2023-04-20T23:42:58.723Z,11.80
2023-04-20T23:45:50.246Z,11.70
2023-04-20T23:48:41.759Z,11.70
2023-04-20T23:51:33.328Z,11.50
2023-04-20T23:54:24.674Z,11.40
2023-04-20T23:57:15.935Z,11.40
